KFVE

Northern Aroostook Regional Airport

Frenchville, Maine, USA
METAR KFVE 230953Z AUTO 27003KT 10SM CLR M16/M18 A3063 RMK AO2 SLP393 I1000 T11561178
Observed Flight Rules
Feb-23 @ 09:53 UTC (30 minutes ago) Visual Flight Rules
Wind Visibility Clouds
270° at 3 knots 10 miles
  • Clear skies
Temperatures Readings
Current -16°C / 3°F
Dewpoint -18°C / -0°F
Humidity 85%
Altimeter 30.63" Hg
Pressure 1039.3 hPa
Elevation 301
METAR KFVE 230953Z AUTO 27003KT 10SM CLR M16/M18 A3063 RMK AO2 SLP393 I1000 T11561178
Observed Flight Rules
Feb-23 @ 09:53 UTC
(30 minutes ago)
VFR
Wind Visibility
270° at 3 knots 10 miles
Clouds
  • Clear skies
Temperature Dewpoint
-16°C / 3°F -18°C / -0°F
Humidity Altimeter Pressure
85% 30.63" Hg 1039.3 hPa